createdAt,value
2018-02-22T00:02:05.293Z,51.40
2018-02-22T00:04:39.175Z,51.40
2018-02-22T00:07:13.701Z,51.80
2018-02-22T00:09:48.717Z,51.40
2018-02-22T00:12:22.728Z,51.40
2018-02-22T00:14:57.566Z,51.50
2018-02-22T00:17:31.756Z,51.90
2018-02-22T00:20:06.075Z,52.70
2018-02-22T00:22:40.803Z,51.80
2018-02-22T00:25:14.695Z,52.40
2018-02-22T00:27:49.280Z,52.40
2018-02-22T00:30:23.892Z,52.40
2018-02-22T00:32:57.931Z,52.70
2018-02-22T00:35:31.922Z,52.30
2018-02-22T00:38:07.366Z,53.60
2018-02-22T00:40:42.100Z,53.50
2018-02-22T00:43:16.488Z,53.50
2018-02-22T00:45:50.970Z,53.60
2018-02-22T00:48:24.796Z,53.40
2018-02-22T00:50:59.307Z,54.00
2018-02-22T00:53:33.242Z,53.90
2018-02-22T00:56:07.115Z,53.80
2018-02-22T00:58:40.922Z,53.70
2018-02-22T01:01:14.638Z,53.90
2018-02-22T01:03:48.368Z,54.00
2018-02-22T01:06:22.924Z,54.30
2018-02-22T01:08:57.686Z,54.80
2018-02-22T01:11:31.735Z,54.80
2018-02-22T01:14:05.444Z,54.80
2018-02-22T01:16:40.482Z,54.40
2018-02-22T01:19:14.335Z,55.50
2018-02-22T01:21:48.186Z,54.50
2018-02-22T01:24:21.931Z,54.40
2018-02-22T01:26:55.709Z,54.80
2018-02-22T01:29:30.055Z,55.20
2018-02-22T01:32:04.356Z,55.30
2018-02-22T01:34:39.031Z,55.30
2018-02-22T01:37:13.079Z,55.30
2018-02-22T01:39:46.911Z,55.30
2018-02-22T01:42:20.791Z,55.20
2018-02-22T01:44:54.675Z,55.50
2018-02-22T01:47:29.282Z,55.30
2018-02-22T01:50:03.743Z,55.60
2018-02-22T01:52:38.003Z,55.70
2018-02-22T01:55:11.912Z,55.40
2018-02-22T01:57:45.919Z,54.70
2018-02-22T02:00:19.535Z,53.80
2018-02-22T02:02:53.490Z,53.40
2018-02-22T02:05:28.214Z,53.70
2018-02-22T02:08:02.424Z,53.60
2018-02-22T02:10:36.184Z,53.20
2018-02-22T02:13:10.899Z,52.90
2018-02-22T02:15:45.589Z,53.40
2018-02-22T02:18:19.770Z,53.40
2018-02-22T02:20:54.211Z,53.50
2018-02-22T02:23:28.274Z,53.50
2018-02-22T02:26:02.005Z,53.50
2018-02-22T02:28:35.958Z,53.70
2018-02-22T02:31:09.674Z,54.40
2018-02-22T02:33:43.463Z,54.70
2018-02-22T02:36:17.217Z,54.70
2018-02-22T02:38:51.124Z,55.50
2018-02-22T02:41:24.760Z,55.20
2018-02-22T02:43:59.540Z,54.90
2018-02-22T02:46:33.541Z,54.90
2018-02-22T02:49:07.222Z,55.00
2018-02-22T02:51:41.152Z,55.00
2018-02-22T02:54:15.053Z,55.00
2018-02-22T02:56:48.767Z,54.80
2018-02-22T02:59:23.478Z,55.00
2018-02-22T03:01:57.532Z,54.80
2018-02-22T03:04:32.218Z,55.40
2018-02-22T03:07:06.226Z,54.60
2018-02-22T03:09:40.872Z,54.40
2018-02-22T03:12:14.696Z,54.30
2018-02-22T03:14:48.553Z,54.30
2018-02-22T03:17:22.458Z,54.30
2018-02-22T03:19:56.328Z,54.20
2018-02-22T03:22:29.962Z,54.80
2018-02-22T03:25:03.845Z,53.80
2018-02-22T03:27:37.671Z,53.30
2018-02-22T03:30:11.887Z,53.40
2018-02-22T03:32:46.421Z,52.90
2018-02-22T03:35:20.264Z,52.40
2018-02-22T03:37:54.726Z,52.20
2018-02-22T03:40:28.996Z,52.20
2018-02-22T03:43:02.782Z,52.20
2018-02-22T03:45:36.615Z,51.90
2018-02-22T03:48:10.499Z,52.10
2018-02-22T03:50:44.854Z,52.10
2018-02-22T03:53:18.550Z,51.70
2018-02-22T03:55:52.453Z,51.90
2018-02-22T03:58:26.199Z,52.10
2018-02-22T04:00:59.971Z,51.70
2018-02-22T04:03:34.048Z,51.70
2018-02-22T04:06:08.780Z,51.70
2018-02-22T04:08:43.469Z,52.20
2018-02-22T04:11:18.327Z,51.90
2018-02-22T04:13:52.440Z,51.90
2018-02-22T04:16:26.357Z,52.00
2018-02-22T04:19:00.873Z,52.10
2018-02-22T04:21:34.599Z,52.90
2018-02-22T04:24:09.087Z,52.00
2018-02-22T04:26:43.133Z,52.40
2018-02-22T04:29:16.991Z,52.80
2018-02-22T04:31:51.747Z,53.10
2018-02-22T04:34:25.762Z,53.00
2018-02-22T04:36:59.816Z,53.30
2018-02-22T04:39:33.555Z,53.60
2018-02-22T04:42:07.515Z,54.30
2018-02-22T04:44:42.192Z,54.30
2018-02-22T04:47:16.187Z,54.80
2018-02-22T04:49:50.855Z,54.70
2018-02-22T04:52:24.957Z,54.70
2018-02-22T04:54:58.792Z,55.60
2018-02-22T04:57:32.743Z,55.20
2018-02-22T05:00:07.670Z,55.10
2018-02-22T05:02:41.836Z,55.40
2018-02-22T05:05:17.315Z,55.90
2018-02-22T05:07:51.547Z,55.90
2018-02-22T05:10:26.160Z,56.20
2018-02-22T05:13:00.337Z,56.10
2018-02-22T05:15:34.325Z,56.20
2018-02-22T05:18:09.143Z,56.20
2018-02-22T05:20:43.149Z,56.10
2018-02-22T05:23:17.875Z,56.10
2018-02-22T05:25:52.667Z,55.90
2018-02-22T05:28:27.432Z,55.90
2018-02-22T05:31:01.447Z,55.90
2018-02-22T05:33:35.218Z,56.00
2018-02-22T05:36:09.159Z,56.00
2018-02-22T05:38:43.032Z,55.90
2018-02-22T05:41:18.421Z,55.50
2018-02-22T05:43:52.771Z,55.40
2018-02-22T05:46:27.215Z,55.60
2018-02-22T05:49:01.497Z,55.50
2018-02-22T05:51:36.971Z,56.00
2018-02-22T05:54:11.070Z,56.00
2018-02-22T05:56:44.816Z,55.90
2018-02-22T05:59:18.819Z,55.40
2018-02-22T06:01:53.439Z,56.70
2018-02-22T06:04:27.373Z,56.60
2018-02-22T06:07:01.108Z,56.20
2018-02-22T06:09:34.909Z,56.30
2018-02-22T06:12:08.772Z,56.00
2018-02-22T06:14:43.622Z,55.80
2018-02-22T06:17:17.830Z,55.70
2018-02-22T06:19:51.715Z,55.60
2018-02-22T06:22:26.115Z,55.90
2018-02-22T06:25:00.580Z,55.90
2018-02-22T06:27:35.884Z,55.90
2018-02-22T06:30:10.417Z,55.90
2018-02-22T06:32:45.564Z,56.30
2018-02-22T06:35:19.972Z,56.30
2018-02-22T06:37:55.330Z,55.80
2018-02-22T06:40:29.538Z,55.80
2018-02-22T06:43:04.359Z,55.00
2018-02-22T06:45:39.088Z,55.00
2018-02-22T06:48:13.700Z,54.60
2018-02-22T06:50:47.781Z,54.60
2018-02-22T06:53:21.511Z,54.20
2018-02-22T06:55:55.414Z,54.60
2018-02-22T06:58:29.383Z,54.70
2018-02-22T07:01:03.180Z,54.50
2018-02-22T07:03:37.054Z,55.20
2018-02-22T07:06:11.542Z,53.70
2018-02-22T07:08:45.271Z,53.30
2018-02-22T07:11:19.144Z,52.80
2018-02-22T07:13:53.022Z,53.30
2018-02-22T07:16:27.866Z,52.50
2018-02-22T07:19:01.867Z,52.50
2018-02-22T07:21:35.926Z,51.70
2018-02-22T07:24:09.783Z,51.80
2018-02-22T07:26:44.621Z,51.10
2018-02-22T07:29:18.640Z,51.10
2018-02-22T07:31:52.623Z,50.90
2018-02-22T07:34:26.414Z,50.90
2018-02-22T07:37:01.159Z,50.60
2018-02-22T07:39:35.015Z,50.60
2018-02-22T07:42:09.687Z,50.00
2018-02-22T07:44:43.784Z,49.90
2018-02-22T07:47:18.439Z,50.00
2018-02-22T07:49:53.422Z,49.20
2018-02-22T07:52:27.556Z,49.20
2018-02-22T07:55:01.328Z,48.80
2018-02-22T07:57:36.001Z,48.70
2018-02-22T08:00:10.508Z,48.70
2018-02-22T08:02:44.655Z,49.00
2018-02-22T08:05:19.341Z,47.80
2018-02-22T08:07:53.397Z,47.80
2018-02-22T08:10:28.794Z,45.30
2018-02-22T08:13:03.654Z,45.90
2018-02-22T08:15:37.523Z,45.10
2018-02-22T08:18:12.469Z,43.10
2018-02-22T08:20:46.307Z,43.70
2018-02-22T08:23:21.200Z,42.50
2018-02-22T08:25:55.925Z,42.60
2018-02-22T08:28:30.256Z,42.60
2018-02-22T08:31:03.987Z,43.40
2018-02-22T08:33:37.797Z,43.30
2018-02-22T08:36:13.288Z,42.90
2018-02-22T08:38:47.677Z,42.90
2018-02-22T08:41:21.733Z,42.20
2018-02-22T08:43:56.279Z,42.90
2018-02-22T08:46:30.287Z,42.20
2018-02-22T08:49:05.003Z,41.80
2018-02-22T08:51:39.911Z,41.20
2018-02-22T08:54:14.063Z,41.20
2018-02-22T08:56:48.652Z,41.40
2018-02-22T08:59:22.636Z,41.30
2018-02-22T09:01:56.349Z,40.90
2018-02-22T09:04:30.283Z,40.80
2018-02-22T09:07:04.691Z,40.50
2018-02-22T09:09:38.774Z,40.50
2018-02-22T09:12:13.428Z,41.30
2018-02-22T09:14:48.412Z,40.30
2018-02-22T09:17:22.529Z,40.30
2018-02-22T09:19:56.535Z,41.00
2018-02-22T09:22:30.323Z,40.30
2018-02-22T09:25:04.223Z,39.60
2018-02-22T09:27:38.862Z,38.90
2018-02-22T09:30:13.699Z,39.60
2018-02-22T09:32:47.796Z,38.90
2018-02-22T09:35:22.186Z,38.50
2018-02-22T09:37:55.923Z,37.10
2018-02-22T09:40:30.435Z,34.50
2018-02-22T09:43:04.643Z,34.50
2018-02-22T09:45:39.351Z,32.60
2018-02-22T09:48:13.244Z,34.60
2018-02-22T09:50:47.831Z,34.70
2018-02-22T09:53:21.626Z,34.70
2018-02-22T09:55:56.250Z,35.00
2018-02-22T09:58:31.122Z,34.60
2018-02-22T10:01:06.313Z,34.60
2018-02-22T10:03:40.131Z,34.60
2018-02-22T10:06:15.697Z,34.70
2018-02-22T10:08:49.773Z,34.60
2018-02-22T10:11:24.327Z,35.20
2018-02-22T10:13:58.364Z,35.10
2018-02-22T10:16:32.240Z,34.40
2018-02-22T10:19:06.041Z,34.20
2018-02-22T10:21:40.912Z,34.20
2018-02-22T10:24:15.653Z,34.10
2018-02-22T10:26:49.908Z,34.10
2018-02-22T10:29:24.377Z,33.50
2018-02-22T10:31:58.458Z,33.50
2018-02-22T10:34:32.365Z,32.90
2018-02-22T10:37:06.741Z,33.00
2018-02-22T10:39:41.289Z,34.40
2018-02-22T10:42:16.049Z,33.80
2018-02-22T10:44:50.253Z,33.00
2018-02-22T10:47:24.160Z,32.70
2018-02-22T10:49:58.311Z,32.50
2018-02-22T10:52:32.999Z,32.10
2018-02-22T10:55:06.887Z,31.20
2018-02-22T10:57:40.827Z,32.20
2018-02-22T11:00:15.467Z,31.60
2018-02-22T11:02:53.033Z,31.40
2018-02-22T11:05:26.753Z,31.10
2018-02-22T11:08:00.941Z,30.60
2018-02-22T11:10:34.760Z,30.60
2018-02-22T11:13:11.145Z,30.50
2018-02-22T11:15:45.876Z,30.20
2018-02-22T11:18:20.216Z,30.00
2018-02-22T11:20:54.039Z,30.70
2018-02-22T11:23:28.086Z,31.30
2018-02-22T11:26:02.657Z,30.90
2018-02-22T11:28:37.487Z,30.90
2018-02-22T11:31:11.555Z,30.80
2018-02-22T11:33:45.445Z,30.60
2018-02-22T11:36:19.177Z,29.90
2018-02-22T11:38:53.749Z,30.80
2018-02-22T11:41:27.819Z,30.70
2018-02-22T11:44:01.546Z,40.90
2018-02-22T11:46:36.201Z,35.60
2018-02-22T11:49:10.820Z,33.30
2018-02-22T11:51:44.760Z,33.30
2018-02-22T11:54:18.543Z,33.40
2018-02-22T11:56:52.452Z,32.30
2018-02-22T11:59:26.259Z,34.10
2018-02-22T12:02:01.057Z,32.30
2018-02-22T12:04:35.214Z,32.30
2018-02-22T12:07:09.155Z,32.50
2018-02-22T12:09:42.931Z,32.40
2018-02-22T12:12:18.216Z,34.50
2018-02-22T12:14:52.462Z,34.40
2018-02-22T12:17:26.447Z,33.40
2018-02-22T12:20:00.393Z,34.60
2018-02-22T12:22:34.082Z,32.30
2018-02-22T12:25:08.437Z,31.40
2018-02-22T12:27:42.219Z,31.30
2018-02-22T12:30:16.153Z,30.90
2018-02-22T12:32:50.721Z,31.20
2018-02-22T12:35:24.775Z,31.10
2018-02-22T12:37:59.394Z,31.20
2018-02-22T12:40:33.492Z,31.20
2018-02-22T12:43:07.764Z,31.70
2018-02-22T12:45:42.031Z,31.60
2018-02-22T12:48:15.743Z,31.50
2018-02-22T12:50:49.547Z,32.40
2018-02-22T12:53:24.002Z,33.80
2018-02-22T12:55:57.978Z,33.80
2018-02-22T12:58:32.443Z,32.70
2018-02-22T13:01:06.558Z,32.70
2018-02-22T13:03:40.381Z,34.00
2018-02-22T13:06:14.434Z,33.00
2018-02-22T13:08:49.412Z,34.10
2018-02-22T13:11:24.097Z,34.10
2018-02-22T13:13:58.771Z,34.60
2018-02-22T13:16:32.768Z,34.00
2018-02-22T13:19:06.715Z,34.00
2018-02-22T13:21:41.474Z,34.30
2018-02-22T13:24:15.523Z,34.20
2018-02-22T13:26:50.276Z,34.60
2018-02-22T13:29:24.347Z,34.20
2018-02-22T13:31:58.898Z,35.00
2018-02-22T13:34:33.858Z,34.20
2018-02-22T13:37:19.709Z,34.80
2018-02-22T13:39:53.503Z,33.90
2018-02-22T13:42:27.296Z,33.90
2018-02-22T13:45:14.383Z,33.50
2018-02-22T13:47:49.372Z,34.20
2018-02-22T13:50:35.710Z,33.50
2018-02-22T13:53:10.150Z,33.50
2018-02-22T13:58:31.568Z,34.10
2018-02-22T14:01:18.110Z,33.20
2018-02-22T14:03:52.732Z,32.40
2018-02-22T14:06:27.032Z,32.40
2018-02-22T14:09:01.176Z,32.60
2018-02-22T14:11:35.189Z,32.80
2018-02-22T14:14:09.926Z,32.80
2018-02-22T14:16:44.850Z,32.20
2018-02-22T14:19:19.127Z,32.20
2018-02-22T14:21:54.406Z,32.50
2018-02-22T14:24:29.664Z,32.70
2018-02-22T14:27:04.654Z,32.70
2018-02-22T14:29:38.929Z,32.60
2018-02-22T14:32:13.331Z,32.70
2018-02-22T14:34:48.068Z,32.60
2018-02-22T14:37:23.380Z,32.60
2018-02-22T14:39:57.067Z,32.30
2018-02-22T14:42:31.706Z,32.50
2018-02-22T14:45:06.319Z,32.40
2018-02-22T14:47:40.360Z,32.40
2018-02-22T14:50:15.728Z,32.50
2018-02-22T14:52:50.167Z,32.50
2018-02-22T14:55:24.896Z,33.00
2018-02-22T14:57:59.403Z,32.10
2018-02-22T15:00:33.554Z,32.00
2018-02-22T15:03:08.510Z,32.60
2018-02-22T15:05:42.288Z,33.30
2018-02-22T15:08:16.199Z,33.30
2018-02-22T15:10:50.948Z,32.20
2018-02-22T15:13:25.557Z,32.20
2018-02-22T15:15:59.433Z,32.30
2018-02-22T15:18:33.739Z,32.70
2018-02-22T15:21:08.255Z,33.70
2018-02-22T15:23:42.642Z,33.10
2018-02-22T15:26:17.082Z,33.30
2018-02-22T15:28:51.160Z,33.50
2018-02-22T15:31:25.895Z,33.90
2018-02-22T15:33:59.631Z,33.40
2018-02-22T15:36:33.835Z,33.10
2018-02-22T15:39:08.311Z,34.00
2018-02-22T15:41:43.584Z,34.40
2018-02-22T15:44:18.166Z,34.40
2018-02-22T15:46:52.257Z,34.20
2018-02-22T15:49:26.998Z,36.10
2018-02-22T15:52:02.361Z,35.90
2018-02-22T15:54:36.094Z,35.90
2018-02-22T15:57:11.229Z,35.30
2018-02-22T15:59:45.729Z,36.50
2018-02-22T16:02:20.765Z,36.10
2018-02-22T16:04:54.982Z,35.90
2018-02-22T16:07:29.232Z,35.80
2018-02-22T16:10:03.512Z,36.80
2018-02-22T16:12:38.653Z,34.70
2018-02-22T16:15:13.094Z,34.70
2018-02-22T16:17:47.124Z,34.30
2018-02-22T16:20:21.623Z,34.70
2018-02-22T16:22:55.833Z,34.50
2018-02-22T16:25:30.354Z,35.10
2018-02-22T16:28:05.596Z,35.30
2018-02-22T16:30:40.051Z,36.00
2018-02-22T16:33:14.220Z,35.70
2018-02-22T16:35:49.610Z,36.10
2018-02-22T16:38:23.914Z,36.00
2018-02-22T16:40:57.993Z,36.70
2018-02-22T16:43:33.047Z,36.10
2018-02-22T16:46:07.368Z,36.20
2018-02-22T16:48:42.292Z,36.80
2018-02-22T16:51:16.303Z,36.80
2018-02-22T16:53:50.351Z,36.70
2018-02-22T16:56:24.094Z,36.40
2018-02-22T16:58:59.036Z,36.90
2018-02-22T17:01:33.303Z,36.90
2018-02-22T17:04:07.987Z,36.70
2018-02-22T17:06:42.249Z,36.60
2018-02-22T17:09:16.482Z,37.00
2018-02-22T17:11:50.733Z,37.10
2018-02-22T17:14:25.082Z,36.90
2018-02-22T17:17:00.241Z,37.30
2018-02-22T17:19:34.535Z,37.30
2018-02-22T17:22:08.785Z,37.50
2018-02-22T17:24:43.957Z,38.10
2018-02-22T17:27:24.313Z,38.10
2018-02-22T17:30:04.581Z,38.10
2018-02-22T17:32:39.023Z,38.00
2018-02-22T17:35:18.759Z,38.10
2018-02-22T17:40:58.899Z,37.70
2018-02-22T17:43:33.204Z,38.10
2018-02-22T17:46:07.054Z,38.60
2018-02-22T17:48:41.715Z,38.40
2018-02-22T17:51:16.295Z,38.70
2018-02-22T17:53:50.009Z,38.80
2018-02-22T17:56:23.777Z,38.70
2018-02-22T17:58:58.540Z,38.80
2018-02-22T18:01:33.616Z,39.10
2018-02-22T18:04:09.501Z,39.10
2018-02-22T18:06:43.983Z,39.50
2018-02-22T18:09:17.826Z,39.40
2018-02-22T18:11:51.703Z,39.60
2018-02-22T18:14:25.671Z,38.70
2018-02-22T18:17:00.432Z,39.30
2018-02-22T18:19:34.494Z,39.50
2018-02-22T18:22:08.465Z,39.40
2018-02-22T18:24:42.994Z,39.20
2018-02-22T18:27:17.531Z,39.50
2018-02-22T18:29:51.700Z,39.50
2018-02-22T18:32:25.502Z,39.20
2018-02-22T18:34:59.281Z,40.00
2018-02-22T18:37:38.917Z,39.20
2018-02-22T18:40:18.461Z,39.90
2018-02-22T18:42:53.473Z,40.50
2018-02-22T18:45:27.462Z,40.10
2018-02-22T18:48:01.185Z,39.70
2018-02-22T18:50:35.005Z,40.00
2018-02-22T18:53:09.022Z,40.70
2018-02-22T18:55:42.754Z,39.70
2018-02-22T18:58:16.645Z,40.40
2018-02-22T19:00:51.252Z,40.20
2018-02-22T19:03:25.898Z,40.80
2018-02-22T19:05:59.537Z,40.30
2018-02-22T19:08:34.333Z,40.60
2018-02-22T19:11:09.140Z,40.50
2018-02-22T19:13:43.838Z,40.60
2018-02-22T19:16:18.033Z,40.10
2018-02-22T19:18:52.012Z,39.90
2018-02-22T19:21:26.563Z,39.60
2018-02-22T19:24:00.437Z,40.30
2018-02-22T19:26:34.064Z,40.90
2018-02-22T19:29:08.730Z,41.60
2018-02-22T19:31:43.048Z,41.00
2018-02-22T19:34:18.395Z,41.10
2018-02-22T19:36:52.863Z,41.10
2018-02-22T19:39:27.211Z,41.20
2018-02-22T19:42:01.922Z,41.90
2018-02-22T19:44:36.406Z,41.80
2018-02-22T19:47:10.999Z,41.80
2018-02-22T19:49:45.171Z,41.80
2018-02-22T19:52:21.378Z,42.40
2018-02-22T19:54:55.888Z,42.40
2018-02-22T19:57:31.391Z,41.90
2018-02-22T20:00:05.560Z,41.90
2018-02-22T20:02:40.071Z,41.70
2018-02-22T20:05:13.820Z,42.20
2018-02-22T20:07:47.578Z,42.00
2018-02-22T20:10:22.529Z,41.80
2018-02-22T20:12:57.039Z,42.30
2018-02-22T20:15:31.660Z,41.70
2018-02-22T20:18:05.925Z,41.50
2018-02-22T20:20:39.969Z,41.70
2018-02-22T20:23:14.313Z,42.10
2018-02-22T20:25:48.196Z,42.10
2018-02-22T20:28:22.750Z,42.20
2018-02-22T20:30:56.590Z,42.20
2018-02-22T20:33:30.651Z,42.90
2018-02-22T20:36:05.149Z,42.50
2018-02-22T20:38:39.901Z,43.00
2018-02-22T20:41:14.665Z,43.70
2018-02-22T20:43:48.671Z,43.70
2018-02-22T20:46:22.701Z,43.30
2018-02-22T20:48:56.710Z,43.10
2018-02-22T20:51:38.776Z,43.20
2018-02-22T20:54:13.111Z,43.10
2018-02-22T20:56:47.522Z,43.60
2018-02-22T20:59:21.630Z,43.60
2018-02-22T21:01:58.444Z,43.40
2018-02-22T21:04:33.675Z,43.40
2018-02-22T21:07:08.023Z,43.30
2018-02-22T21:09:42.460Z,42.90
2018-02-22T21:12:16.777Z,42.90
2018-02-22T21:14:50.569Z,43.20
2018-02-22T21:17:26.038Z,43.00
2018-02-22T21:20:00.195Z,43.00
2018-02-22T21:22:33.970Z,43.30
2018-02-22T21:25:08.695Z,43.00
2018-02-22T21:27:42.867Z,42.80
2018-02-22T21:30:17.529Z,42.40
2018-02-22T21:32:51.792Z,42.20
2018-02-22T21:35:26.342Z,42.30
2018-02-22T21:38:00.294Z,42.90
2018-02-22T21:40:34.993Z,42.80
2018-02-22T21:43:08.639Z,42.20
2018-02-22T21:45:43.441Z,42.20
2018-02-22T21:48:18.346Z,42.50
2018-02-22T21:50:53.998Z,42.70
2018-02-22T21:53:27.986Z,42.70
2018-02-22T21:56:01.700Z,42.10
2018-02-22T21:58:35.769Z,42.10
2018-02-22T22:01:09.461Z,42.00
2018-02-22T22:03:43.387Z,42.10
2018-02-22T22:06:17.067Z,42.10
2018-02-22T22:08:51.895Z,42.40
2018-02-22T22:11:25.766Z,42.40
2018-02-22T22:14:00.628Z,42.60
2018-02-22T22:16:34.671Z,42.60
2018-02-22T22:19:08.870Z,42.80
2018-02-22T22:21:43.537Z,42.90
2018-02-22T22:24:18.549Z,42.60
2018-02-22T22:26:52.569Z,42.50
2018-02-22T22:29:26.242Z,42.20
2018-02-22T22:32:01.947Z,42.50
2018-02-22T22:34:36.614Z,42.50
2018-02-22T22:37:11.198Z,42.80
2018-02-22T22:39:45.181Z,42.70
2018-02-22T22:42:19.047Z,42.60
2018-02-22T22:44:52.707Z,42.20
2018-02-22T22:47:27.326Z,42.80
2018-02-22T22:50:01.770Z,42.80
2018-02-22T22:52:36.526Z,42.70
2018-02-22T22:55:10.803Z,42.70
2018-02-22T22:57:44.561Z,42.90
2018-02-22T23:00:22.114Z,43.90
2018-02-22T23:02:56.329Z,43.90
2018-02-22T23:05:30.374Z,44.10
2018-02-22T23:08:05.078Z,43.80
2018-02-22T23:10:38.817Z,43.40
2018-02-22T23:13:12.713Z,43.60
2018-02-22T23:15:46.462Z,43.50
2018-02-22T23:18:20.959Z,43.80
2018-02-22T23:20:54.945Z,43.80
2018-02-22T23:23:28.650Z,43.60
2018-02-22T23:26:02.613Z,43.70
2018-02-22T23:28:36.348Z,43.70
2018-02-22T23:31:10.120Z,43.70
2018-02-22T23:33:44.255Z,46.40
2018-02-22T23:36:18.913Z,43.60
2018-02-22T23:38:53.213Z,43.70
2018-02-22T23:41:45.008Z,43.40
2018-02-22T23:44:19.649Z,43.30
2018-02-22T23:46:53.538Z,44.10
2018-02-22T23:49:27.613Z,43.90
2018-02-22T23:52:01.928Z,43.90
2018-02-22T23:54:35.921Z,43.70
2018-02-22T23:57:09.802Z,44.20
2018-02-22T23:59:44.404Z,44.00
